createdAt,value
2022-11-27T00:00:26.613Z,3.03
2022-11-27T00:02:54.170Z,3.40
2022-11-27T00:05:21.679Z,3.63
2022-11-27T00:07:49.276Z,3.55
2022-11-27T00:10:18.321Z,3.50
2022-11-27T00:12:45.902Z,3.88
2022-11-27T00:15:17.048Z,3.63
2022-11-27T00:17:44.793Z,3.13
2022-11-27T00:20:13.774Z,4.20
2022-11-27T00:22:41.216Z,4.57
2022-11-27T00:25:09.405Z,4.47
2022-11-27T00:27:38.189Z,6.00
2022-11-27T00:30:06.817Z,4.07
2022-11-27T00:32:34.261Z,4.28
2022-11-27T00:35:01.680Z,6.05
2022-11-27T00:37:29.129Z,5.05
2022-11-27T00:39:56.573Z,5.38
2022-11-27T00:42:24.041Z,5.00
2022-11-27T00:44:52.855Z,4.95
2022-11-27T00:47:20.529Z,3.95
2022-11-27T00:49:47.992Z,4.75
2022-11-27T00:52:15.536Z,5.35
2022-11-27T00:54:43.007Z,7.20
2022-11-27T00:57:10.464Z,3.55
2022-11-27T00:59:37.951Z,4.55
2022-11-27T01:02:06.811Z,5.25
2022-11-27T01:04:34.304Z,5.40
2022-11-27T01:07:01.775Z,5.37
2022-11-27T01:09:29.226Z,5.38
2022-11-27T01:11:56.686Z,5.40
2022-11-27T01:14:24.163Z,5.10
2022-11-27T01:16:51.603Z,5.22
2022-11-27T01:19:20.460Z,5.13
2022-11-27T01:21:48.178Z,5.68
2022-11-27T01:24:17.001Z,5.38
2022-11-27T01:26:45.144Z,6.03
2022-11-27T01:29:12.853Z,5.72
2022-11-27T01:31:40.458Z,5.77
2022-11-27T01:34:13.695Z,5.97
2022-11-27T01:36:42.501Z,5.38
2022-11-27T01:39:16.061Z,6.07
2022-11-27T01:41:44.441Z,5.72
2022-11-27T01:44:50.811Z,4.23
2022-11-27T01:47:33.559Z,6.30
2022-11-27T01:50:11.317Z,5.78
2022-11-27T01:52:43.429Z,5.05
2022-11-27T01:55:18.797Z,6.25
2022-11-27T01:57:49.210Z,6.17
2022-11-27T02:00:18.790Z,5.13
2022-11-27T02:02:46.630Z,6.10
2022-11-27T02:05:17.488Z,5.45
2022-11-27T02:07:46.851Z,7.35
2022-11-27T02:10:15.181Z,5.50
2022-11-27T02:12:50.140Z,8.52
2022-11-27T02:15:21.365Z,6.45
2022-11-27T02:17:56.952Z,7.38
2022-11-27T02:20:41.321Z,7.07
2022-11-27T02:23:37.686Z,6.60
2022-11-27T02:26:21.714Z,7.95
2022-11-27T02:28:59.918Z,5.75
2022-11-27T02:31:38.323Z,5.72
2022-11-27T02:34:14.717Z,5.97
2022-11-27T02:36:48.711Z,5.77
2022-11-27T02:39:23.077Z,6.75
2022-11-27T02:41:55.516Z,6.22
2022-11-27T02:44:27.878Z,6.10
2022-11-27T02:46:56.459Z,7.68
2022-11-27T02:49:24.857Z,4.63
2022-11-27T02:51:59.899Z,5.57
2022-11-27T02:54:30.719Z,5.78
2022-11-27T02:57:01.762Z,5.97
2022-11-27T02:59:32.939Z,3.72
2022-11-27T03:02:03.755Z,5.80
2022-11-27T03:04:35.807Z,4.45
2022-11-27T03:07:07.977Z,4.60
2022-11-27T03:09:38.179Z,5.43
2022-11-27T03:12:09.640Z,6.57
2022-11-27T03:14:40.206Z,5.20
2022-11-27T03:17:15.722Z,4.90
2022-11-27T03:19:49.222Z,4.68
2022-11-27T03:22:17.581Z,4.40
2022-11-27T03:24:45.421Z,5.85
2022-11-27T03:27:16.102Z,5.50
2022-11-27T03:29:50.399Z,3.85
2022-11-27T03:32:18.661Z,6.20
2022-11-27T03:34:48.122Z,5.68
2022-11-27T03:37:16.523Z,5.18
2022-11-27T03:39:44.318Z,4.83
2022-11-27T03:42:20.114Z,5.53
2022-11-27T03:44:59.578Z,4.72
2022-11-27T03:47:41.501Z,4.05
2022-11-27T03:50:22.566Z,4.88
2022-11-27T03:53:01.519Z,4.57
2022-11-27T03:55:38.105Z,5.93
2022-11-27T03:58:09.860Z,4.15
2022-11-27T04:00:41.948Z,3.45
2022-11-27T04:03:11.485Z,5.05
2022-11-27T04:05:38.984Z,5.33
2022-11-27T04:08:06.834Z,6.00
2022-11-27T04:10:34.256Z,5.10
2022-11-27T04:13:01.675Z,4.90
2022-11-27T04:15:29.122Z,4.50
2022-11-27T04:17:57.881Z,4.20
2022-11-27T04:20:25.333Z,5.63
2022-11-27T04:22:52.787Z,4.32
2022-11-27T04:25:22.242Z,3.10
2022-11-27T04:27:50.755Z,3.88
2022-11-27T04:30:18.696Z,3.67
2022-11-27T04:32:46.159Z,4.55
2022-11-27T04:35:15.218Z,4.13
2022-11-27T04:37:42.682Z,4.22
2022-11-27T04:40:11.209Z,4.00
2022-11-27T04:42:38.641Z,3.70
2022-11-27T04:45:07.402Z,4.72
2022-11-27T04:47:34.879Z,4.90
2022-11-27T04:50:02.439Z,4.07
2022-11-27T04:52:31.251Z,5.00
2022-11-27T04:55:00.471Z,4.87
2022-11-27T04:57:28.563Z,5.88
2022-11-27T04:59:56.022Z,4.43
2022-11-27T05:02:23.643Z,4.68
2022-11-27T05:04:51.101Z,4.82
2022-11-27T05:07:18.591Z,5.40
2022-11-27T05:09:47.432Z,3.88
2022-11-27T05:12:14.891Z,5.13
2022-11-27T05:14:42.642Z,4.60
2022-11-27T05:17:10.939Z,6.40
2022-11-27T05:19:38.578Z,4.87
2022-11-27T05:22:06.033Z,5.97
2022-11-27T05:24:33.986Z,5.38
2022-11-27T05:27:02.794Z,3.85
2022-11-27T05:29:30.503Z,4.22
2022-11-27T05:31:58.164Z,3.80
2022-11-27T05:34:25.612Z,4.30
2022-11-27T05:36:53.076Z,3.72
2022-11-27T05:39:20.502Z,3.78
2022-11-27T05:41:47.902Z,3.92
2022-11-27T05:44:17.086Z,2.87
2022-11-27T05:46:44.701Z,3.50
2022-11-27T05:49:14.513Z,3.55
2022-11-27T05:51:49.113Z,3.92
2022-11-27T05:54:18.623Z,3.08
2022-11-27T05:56:46.110Z,3.50
2022-11-27T05:59:13.579Z,3.35
2022-11-27T06:01:42.433Z,3.45
2022-11-27T06:04:09.913Z,3.15
2022-11-27T06:06:37.346Z,2.88
2022-11-27T06:09:10.858Z,3.27
2022-11-27T06:11:40.230Z,2.55
2022-11-27T06:14:08.401Z,2.75
2022-11-27T06:16:35.953Z,3.95
2022-11-27T06:19:05.011Z,3.42
2022-11-27T06:21:32.533Z,3.87
2022-11-27T06:24:00.279Z,2.85
2022-11-27T06:26:30.432Z,3.17
2022-11-27T06:28:59.427Z,3.58
2022-11-27T06:31:29.129Z,1.90
2022-11-27T06:33:57.646Z,3.53
2022-11-27T06:36:30.202Z,2.88
2022-11-27T06:38:57.657Z,2.40
2022-11-27T06:41:26.956Z,2.40
2022-11-27T06:43:54.782Z,2.05
2022-11-27T06:46:23.789Z,2.57
2022-11-27T06:48:52.988Z,2.53
2022-11-27T06:51:22.618Z,2.60
2022-11-27T06:53:52.385Z,2.67
2022-11-27T06:56:23.756Z,2.90
2022-11-27T06:58:52.518Z,2.77
2022-11-27T07:01:20.791Z,3.35
2022-11-27T07:03:48.934Z,2.88
2022-11-27T07:06:20.600Z,2.08
2022-11-27T07:08:48.756Z,2.33
2022-11-27T07:11:19.482Z,2.67
2022-11-27T07:13:47.782Z,3.20
2022-11-27T07:16:16.194Z,2.88
2022-11-27T07:18:45.601Z,2.97
2022-11-27T07:21:13.442Z,3.63
2022-11-27T07:23:41.281Z,2.63
2022-11-27T07:26:10.842Z,2.80
2022-11-27T07:28:39.938Z,3.30
2022-11-27T07:31:07.595Z,2.83
2022-11-27T07:33:35.028Z,2.55
2022-11-27T07:36:05.193Z,3.40
2022-11-27T07:38:32.722Z,3.45
2022-11-27T07:41:00.467Z,3.40
2022-11-27T07:43:28.186Z,2.85
2022-11-27T07:45:57.327Z,2.50
2022-11-27T07:48:24.893Z,2.17
2022-11-27T07:50:52.321Z,2.83
2022-11-27T07:53:19.707Z,2.03
2022-11-27T07:55:47.122Z,2.28
2022-11-27T07:58:14.545Z,3.17
2022-11-27T08:00:42.267Z,2.60
2022-11-27T08:03:11.721Z,2.75
2022-11-27T08:05:39.201Z,2.90
2022-11-27T08:08:06.707Z,2.28
2022-11-27T08:10:35.901Z,1.90
2022-11-27T08:13:03.703Z,2.13
2022-11-27T08:15:31.659Z,2.50
2022-11-27T08:17:59.356Z,1.92
2022-11-27T08:20:28.101Z,1.73
2022-11-27T08:23:01.026Z,2.45
2022-11-27T08:25:30.044Z,2.20
2022-11-27T08:27:57.480Z,1.75
2022-11-27T08:30:25.272Z,1.80
2022-11-27T08:32:52.734Z,1.45
2022-11-27T08:35:20.167Z,1.33
2022-11-27T08:37:49.099Z,2.93
2022-11-27T08:40:16.702Z,1.65
2022-11-27T08:42:44.110Z,2.10
2022-11-27T08:45:11.871Z,1.58
2022-11-27T08:47:39.313Z,1.80
2022-11-27T08:50:08.483Z,2.13
2022-11-27T08:52:35.873Z,1.88
2022-11-27T08:55:05.121Z,1.48
2022-11-27T08:57:32.542Z,1.98
2022-11-27T08:59:59.959Z,1.58
2022-11-27T09:02:27.417Z,1.70
2022-11-27T09:04:54.858Z,1.50
2022-11-27T09:07:22.546Z,1.77
2022-11-27T09:09:50.061Z,1.50
2022-11-27T09:12:18.814Z,1.10
2022-11-27T09:14:46.287Z,1.30
2022-11-27T09:17:14.036Z,1.60
2022-11-27T09:19:41.517Z,1.40
2022-11-27T09:22:08.923Z,1.70
2022-11-27T09:24:37.386Z,1.92
2022-11-27T09:27:04.968Z,1.53
2022-11-27T09:29:34.654Z,1.30
2022-11-27T09:32:02.545Z,1.67
2022-11-27T09:34:34.632Z,1.25
2022-11-27T09:37:05.171Z,1.75
2022-11-27T09:39:34.015Z,1.73
2022-11-27T09:42:04.045Z,1.50
2022-11-27T09:44:40.928Z,1.90
2022-11-27T09:47:15.536Z,1.52
2022-11-27T09:49:46.936Z,1.23
2022-11-27T09:52:21.579Z,1.70
2022-11-27T09:54:54.810Z,1.67
2022-11-27T09:57:29.238Z,1.40
2022-11-27T10:00:02.409Z,1.23
2022-11-27T10:02:32.814Z,1.40
2022-11-27T10:05:17.531Z,0.90
2022-11-27T10:08:06.445Z,1.60
2022-11-27T10:10:41.605Z,1.38
2022-11-27T10:13:23.514Z,1.58
2022-11-27T10:15:57.533Z,1.05
2022-11-27T10:18:33.266Z,1.47
2022-11-27T10:21:08.344Z,0.75
2022-11-27T10:23:46.490Z,1.10
2022-11-27T10:26:19.402Z,0.98
2022-11-27T10:28:56.246Z,0.88
2022-11-27T10:31:33.968Z,0.87
2022-11-27T10:34:05.213Z,0.90
2022-11-27T10:36:38.212Z,1.13
2022-11-27T10:39:13.802Z,1.10
2022-11-27T10:41:49.978Z,0.98
2022-11-27T10:44:26.178Z,1.20
2022-11-27T10:47:00.431Z,1.17
2022-11-27T10:49:27.924Z,1.05
2022-11-27T10:51:55.393Z,1.08
2022-11-27T10:54:27.998Z,1.05
2022-11-27T10:57:17.040Z,1.20
2022-11-27T10:59:50.521Z,0.93
2022-11-27T11:02:31.643Z,1.00
2022-11-27T11:05:30.759Z,0.75
2022-11-27T11:07:59.870Z,1.13
2022-11-27T11:10:31.305Z,1.03
2022-11-27T11:13:15.811Z,0.90
2022-11-27T11:15:52.928Z,1.73
2022-11-27T11:18:24.035Z,1.50
2022-11-27T11:20:53.807Z,0.82
2022-11-27T11:23:24.788Z,1.30
2022-11-27T11:25:54.401Z,1.27
2022-11-27T11:28:23.234Z,1.23
2022-11-27T11:30:55.615Z,1.42
2022-11-27T11:33:24.788Z,1.30
2022-11-27T11:35:55.199Z,1.13
2022-11-27T11:38:33.606Z,1.60
2022-11-27T11:41:03.748Z,1.35
2022-11-27T11:43:34.161Z,0.80
2022-11-27T11:46:08.497Z,1.30
2022-11-27T11:48:38.635Z,0.87
2022-11-27T11:51:13.683Z,1.10
2022-11-27T11:53:45.251Z,1.10
2022-11-27T11:56:26.959Z,1.20
2022-11-27T11:58:58.746Z,1.55
2022-11-27T12:01:46.950Z,1.10
2022-11-27T12:04:37.677Z,1.33
2022-11-27T12:07:15.053Z,1.23
2022-11-27T12:09:52.290Z,1.40
2022-11-27T12:12:35.382Z,1.63
2022-11-27T12:15:10.286Z,1.20
2022-11-27T12:17:51.372Z,1.40
2022-11-27T12:20:25.098Z,1.40
2022-11-27T12:23:33.149Z,1.20
2022-11-27T12:26:08.071Z,1.25
2022-11-27T12:28:57.542Z,1.23
2022-11-27T12:31:40.323Z,1.63
2022-11-27T12:34:15.046Z,1.48
2022-11-27T12:37:12.528Z,1.60
2022-11-27T12:39:54.082Z,1.60
2022-11-27T12:42:28.362Z,1.13
2022-11-27T12:45:01.708Z,1.88
2022-11-27T12:47:40.069Z,1.60
2022-11-27T12:50:15.630Z,1.52
2022-11-27T12:52:47.567Z,1.52
2022-11-27T12:55:19.557Z,1.07
2022-11-27T12:57:50.501Z,2.00
2022-11-27T13:00:20.718Z,1.98
2022-11-27T13:03:00.785Z,0.98
2022-11-27T13:05:33.120Z,1.88
2022-11-27T13:08:05.494Z,1.30
2022-11-27T13:10:38.213Z,1.50
2022-11-27T13:13:09.525Z,1.80
2022-11-27T13:15:43.835Z,1.27
2022-11-27T13:18:20.357Z,1.60
2022-11-27T13:20:52.804Z,1.20
2022-11-27T13:23:22.276Z,1.38
2022-11-27T13:25:54.846Z,0.95
2022-11-27T13:28:27.914Z,1.13
2022-11-27T13:30:59.362Z,1.35
2022-11-27T13:33:36.941Z,1.13
2022-11-27T13:36:06.998Z,1.30
2022-11-27T13:38:38.118Z,1.10
2022-11-27T13:41:06.906Z,1.00
2022-11-27T13:43:43.030Z,1.35
2022-11-27T13:46:16.033Z,0.87
2022-11-27T13:48:49.088Z,1.58
2022-11-27T13:51:26.227Z,1.45
2022-11-27T13:54:07.175Z,0.85
2022-11-27T13:56:34.699Z,1.20
2022-11-27T13:59:13.708Z,1.00
2022-11-27T14:01:41.470Z,1.05
2022-11-27T14:04:10.146Z,1.15
2022-11-27T14:06:39.642Z,1.13
2022-11-27T14:09:08.746Z,1.23
2022-11-27T14:11:41.108Z,0.83
2022-11-27T14:14:17.240Z,1.00
2022-11-27T14:16:54.712Z,1.70
2022-11-27T14:19:34.388Z,1.10
2022-11-27T14:22:02.498Z,1.30
2022-11-27T14:24:43.608Z,1.20
2022-11-27T14:27:20.341Z,1.42
2022-11-27T14:29:48.517Z,1.48
2022-11-27T14:32:17.517Z,1.15
2022-11-27T14:34:46.147Z,1.27
2022-11-27T14:37:31.531Z,1.50
2022-11-27T14:40:00.348Z,1.48
2022-11-27T14:42:32.995Z,1.05
2022-11-27T14:45:04.456Z,1.30
2022-11-27T14:47:32.708Z,1.33
2022-11-27T14:50:01.098Z,1.20
2022-11-27T14:52:29.143Z,1.13
2022-11-27T14:54:58.266Z,1.58
2022-11-27T14:57:28.949Z,1.45
2022-11-27T15:00:06.348Z,1.35
2022-11-27T15:02:33.957Z,1.57
2022-11-27T15:05:06.470Z,1.30
2022-11-27T15:07:45.158Z,1.80
2022-11-27T15:10:26.306Z,1.50
2022-11-27T15:12:55.678Z,2.30
2022-11-27T15:15:26.066Z,1.87
2022-11-27T15:17:56.646Z,1.95
2022-11-27T15:20:26.730Z,1.58
2022-11-27T15:22:56.988Z,1.50
2022-11-27T15:25:36.342Z,2.03
2022-11-27T15:28:25.797Z,1.80
2022-11-27T15:30:53.367Z,1.50
2022-11-27T15:33:31.189Z,1.90
2022-11-27T15:36:16.261Z,1.63
2022-11-27T15:38:45.305Z,2.13
2022-11-27T15:41:24.248Z,2.50
2022-11-27T15:43:54.235Z,2.50
2022-11-27T15:46:25.907Z,2.05
2022-11-27T15:48:54.634Z,2.35
2022-11-27T15:51:22.065Z,1.08
2022-11-27T15:53:49.526Z,2.33
2022-11-27T15:56:17.356Z,2.72
2022-11-27T15:58:44.854Z,2.08
2022-11-27T16:01:13.712Z,2.53
2022-11-27T16:03:41.193Z,1.75
2022-11-27T16:06:09.931Z,2.03
2022-11-27T16:08:37.533Z,1.67
2022-11-27T16:11:07.110Z,2.28
2022-11-27T16:13:35.080Z,2.00
2022-11-27T16:16:03.511Z,1.70
2022-11-27T16:18:34.196Z,2.03
2022-11-27T16:21:04.385Z,3.60
2022-11-27T16:23:32.103Z,2.35
2022-11-27T16:26:00.281Z,2.97
2022-11-27T16:28:28.746Z,2.55
2022-11-27T16:30:56.625Z,1.83
2022-11-27T16:33:26.662Z,1.90
2022-11-27T16:35:56.387Z,2.72
2022-11-27T16:38:23.800Z,2.28
2022-11-27T16:40:51.518Z,1.73
2022-11-27T16:43:18.949Z,1.53
2022-11-27T16:45:46.420Z,2.30
2022-11-27T16:48:13.842Z,2.42
2022-11-27T16:50:41.311Z,1.95
2022-11-27T16:53:10.067Z,2.50
2022-11-27T16:55:37.515Z,2.83
2022-11-27T16:58:04.973Z,1.80
2022-11-27T17:00:32.437Z,1.65
2022-11-27T17:02:59.817Z,2.22
2022-11-27T17:05:27.302Z,2.22
2022-11-27T17:07:55.574Z,2.60
2022-11-27T17:10:24.385Z,2.92
2022-11-27T17:12:51.792Z,2.10
2022-11-27T17:15:19.334Z,1.70
2022-11-27T17:17:46.774Z,2.22
2022-11-27T17:20:14.323Z,1.83
2022-11-27T17:22:41.765Z,2.33
2022-11-27T17:25:11.014Z,2.30
2022-11-27T17:27:39.894Z,2.17
2022-11-27T17:30:08.747Z,2.15
2022-11-27T17:32:36.240Z,2.07
2022-11-27T17:35:03.694Z,1.65
2022-11-27T17:37:31.140Z,1.40
2022-11-27T17:39:58.682Z,2.92
2022-11-27T17:42:26.140Z,1.98
2022-11-27T17:44:56.085Z,1.80
2022-11-27T17:47:23.504Z,1.65
2022-11-27T17:49:51.125Z,2.20
2022-11-27T17:52:18.550Z,2.95
2022-11-27T17:54:45.977Z,2.58
2022-11-27T17:57:13.431Z,1.87
2022-11-27T17:59:41.111Z,1.73
2022-11-27T18:02:11.361Z,2.05
2022-11-27T18:04:39.054Z,1.88
2022-11-27T18:07:06.526Z,3.13
2022-11-27T18:09:34.012Z,2.00
2022-11-27T18:12:01.442Z,1.90
2022-11-27T18:14:29.352Z,2.00
2022-11-27T18:16:56.824Z,1.70
2022-11-27T18:19:25.638Z,2.25
2022-11-27T18:21:53.091Z,1.60
2022-11-27T18:24:23.428Z,2.05
2022-11-27T18:27:08.847Z,2.00
2022-11-27T18:29:37.330Z,2.00
2022-11-27T18:32:05.377Z,1.80
2022-11-27T18:34:34.908Z,2.57
2022-11-27T18:37:02.714Z,1.95
2022-11-27T18:39:31.224Z,2.33
2022-11-27T18:41:58.718Z,1.98
2022-11-27T18:44:26.696Z,2.20
2022-11-27T18:46:54.427Z,2.03
2022-11-27T18:49:23.073Z,1.67
2022-11-27T18:51:53.429Z,1.88
2022-11-27T18:54:21.608Z,2.20
2022-11-27T18:56:49.055Z,1.75
2022-11-27T18:59:16.514Z,1.67
2022-11-27T19:01:43.979Z,1.20
2022-11-27T19:04:12.475Z,1.90
2022-11-27T19:06:42.002Z,1.70
2022-11-27T19:09:11.891Z,2.60
2022-11-27T19:11:40.270Z,1.80
2022-11-27T19:14:07.826Z,2.03
2022-11-27T19:16:38.325Z,1.73
2022-11-27T19:19:07.221Z,2.28
2022-11-27T19:21:35.869Z,1.75
2022-11-27T19:24:04.521Z,1.37
2022-11-27T19:26:35.302Z,2.17
2022-11-27T19:29:05.500Z,2.10
2022-11-27T19:31:33.904Z,1.90
2022-11-27T19:34:03.225Z,1.95
2022-11-27T19:36:32.626Z,1.97
2022-11-27T19:39:03.851Z,1.45
2022-11-27T19:41:33.388Z,2.10
2022-11-27T19:44:01.187Z,2.15
2022-11-27T19:46:30.410Z,1.70
2022-11-27T19:48:59.434Z,1.80
2022-11-27T19:51:28.535Z,1.98
2022-11-27T19:53:56.149Z,2.15
2022-11-27T19:56:26.922Z,2.47
2022-11-27T19:58:55.685Z,1.67
2022-11-27T20:01:23.215Z,2.20
2022-11-27T20:03:50.796Z,1.88
2022-11-27T20:06:19.916Z,1.92
2022-11-27T20:08:49.539Z,2.25
2022-11-27T20:11:18.779Z,2.38
2022-11-27T20:13:46.215Z,3.03
2022-11-27T20:16:17.713Z,1.83
2022-11-27T20:18:45.739Z,1.92
2022-11-27T20:21:15.262Z,2.38
2022-11-27T20:23:43.060Z,2.53
2022-11-27T20:26:12.667Z,2.23
2022-11-27T20:28:41.319Z,2.30
2022-11-27T20:31:13.974Z,2.50
2022-11-27T20:33:42.970Z,1.67
2022-11-27T20:36:15.394Z,2.53
2022-11-27T20:38:43.034Z,2.00
2022-11-27T20:41:12.088Z,2.20
2022-11-27T20:43:40.184Z,3.95
2022-11-27T20:46:08.530Z,2.40
2022-11-27T20:48:36.373Z,2.17
2022-11-27T20:51:08.131Z,2.17
2022-11-27T20:53:36.103Z,2.22
2022-11-27T20:56:04.155Z,2.25
2022-11-27T20:58:31.640Z,2.10
2022-11-27T21:01:00.005Z,2.50
2022-11-27T21:03:27.861Z,2.07
2022-11-27T21:05:55.639Z,3.00
2022-11-27T21:08:24.404Z,2.10
2022-11-27T21:10:51.839Z,2.20
2022-11-27T21:13:19.289Z,2.78
2022-11-27T21:15:47.341Z,2.30
2022-11-27T21:18:15.212Z,2.47
2022-11-27T21:20:43.432Z,3.10
2022-11-27T21:23:10.863Z,2.92
2022-11-27T21:25:42.692Z,2.28
2022-11-27T21:28:10.195Z,3.30
2022-11-27T21:30:37.645Z,1.92
2022-11-27T21:33:05.131Z,2.10
2022-11-27T21:35:36.702Z,2.22
2022-11-27T21:38:07.927Z,1.98
2022-11-27T21:40:37.858Z,2.10
2022-11-27T21:43:06.647Z,2.72
2022-11-27T21:45:37.183Z,2.97
2022-11-27T21:48:04.823Z,3.65
2022-11-27T21:50:32.275Z,2.70
2022-11-27T21:52:59.785Z,3.10
2022-11-27T21:55:27.200Z,3.05
2022-11-27T21:57:54.625Z,3.10
2022-11-27T22:00:23.798Z,3.10
2022-11-27T22:02:51.332Z,2.83
2022-11-27T22:05:18.944Z,3.63
2022-11-27T22:07:46.467Z,3.63
2022-11-27T22:10:13.981Z,2.70
2022-11-27T22:12:41.425Z,3.17
2022-11-27T22:15:09.602Z,2.67
2022-11-27T22:17:38.902Z,2.73
2022-11-27T22:20:07.782Z,3.60
2022-11-27T22:22:35.437Z,3.90
2022-11-27T22:25:04.168Z,3.30
2022-11-27T22:27:31.590Z,3.03
2022-11-27T22:29:59.014Z,2.77
2022-11-27T22:32:26.463Z,3.05
2022-11-27T22:34:55.216Z,2.42
2022-11-27T22:37:22.679Z,3.05
2022-11-27T22:39:50.121Z,2.72
2022-11-27T22:42:17.559Z,3.43
2022-11-27T22:44:45.079Z,3.15
2022-11-27T22:47:12.526Z,2.97
2022-11-27T22:49:40.038Z,3.40
2022-11-27T22:52:08.824Z,3.05
2022-11-27T22:54:36.478Z,3.50
2022-11-27T22:57:04.069Z,3.28
2022-11-27T22:59:33.295Z,3.97
2022-11-27T23:02:02.220Z,2.90
2022-11-27T23:04:29.747Z,3.13
2022-11-27T23:06:57.172Z,3.17
2022-11-27T23:09:26.100Z,3.20
2022-11-27T23:11:53.609Z,3.53
2022-11-27T23:14:21.014Z,3.50
2022-11-27T23:16:48.603Z,3.85
2022-11-27T23:19:16.278Z,3.40
2022-11-27T23:21:43.714Z,4.15
2022-11-27T23:24:13.478Z,3.55
2022-11-27T23:26:42.889Z,3.05
2022-11-27T23:29:10.611Z,2.85
2022-11-27T23:31:38.907Z,3.60
2022-11-27T23:34:08.136Z,3.58
2022-11-27T23:36:35.950Z,3.28
2022-11-27T23:39:06.525Z,2.33
2022-11-27T23:41:34.021Z,3.70
2022-11-27T23:44:02.909Z,4.07
2022-11-27T23:46:31.483Z,3.45
2022-11-27T23:49:00.729Z,3.92
2022-11-27T23:51:31.078Z,3.58
2022-11-27T23:53:59.131Z,3.47
2022-11-27T23:56:29.202Z,3.70
2022-11-27T23:58:57.224Z,3.53
